Time;durP1;ratioP1;P1;durP2;ratioP2;P2;SDS_P1;SDS_P2;PMS_P1;PMS_P2;Temp;Humidity;BMP_temperature;BMP_pressure;BME280_temperature;BME280_humidity;BME280_pressure;Samples;Min_cycle;Max_cycle;Signal;HPM_P1;HPM_P2
2021/10/17 00:01:57;;;;;;;12.93;7.35;;;;;;;;;;20996967;28;20059;-67
2021/10/17 00:11:59;;;;;;;18.50;8.27;;;;;;;;;;20996054;28;20044;-61
2021/10/17 00:22:02;;;;;;;18.02;9.07;;;;;;;;;;20996089;28;20084;-64
2021/10/17 00:32:09;;;;;;;13.90;9.30;;;;;;;;;;20995396;28;20045;-62
2021/10/17 00:42:14;;;;;;;16.52;9.65;;;;;;;;;;20995507;28;20060;-63
2021/10/17 00:52:17;;;;;;;21.00;11.23;;;;;;;;;;20994603;28;20060;-62
2021/10/17 01:02:22;;;;;;;21.30;12.55;;;;;;;;;;21002830;28;20067;-64
2021/10/17 01:12:27;;;;;;;17.60;11.93;;;;;;;;;;21010228;28;20401;-63
2021/10/17 01:22:30;;;;;;;15.70;11.73;;;;;;;;;;21009315;28;20052;-62
2021/10/17 01:32:37;;;;;;;13.93;10.45;;;;;;;;;;21009521;28;20082;-61
2021/10/17 01:42:42;;;;;;;11.52;8.30;;;;;;;;;;21007660;28;20052;-65
2021/10/17 01:52:51;;;;;;;9.38;7.65;;;;;;;;;;21007170;28;20090;-61
2021/10/17 02:02:55;;;;;;;9.18;6.22;;;;;;;;;;21005914;28;20051;-65
2021/10/17 02:13:00;;;;;;;6.55;5.25;;;;;;;;;;21003813;28;20129;-65
2021/10/17 02:23:21;;;;;;;7.60;4.95;;;;;;;;;;21005393;28;20048;-64
2021/10/17 02:33:36;;;;;;;6.97;4.68;;;;;;;;;;21003397;28;20135;-65
2021/10/17 02:43:42;;;;;;;7.57;4.93;;;;;;;;;;21002744;28;20105;-65
2021/10/17 02:54:03;;;;;;;8.18;5.55;;;;;;;;;;21001279;28;20052;-62
2021/10/17 03:04:24;;;;;;;5.60;4.68;;;;;;;;;;21001137;28;20052;-64
2021/10/17 03:14:40;;;;;;;7.97;5.53;;;;;;;;;;20999908;28;20131;-65
2021/10/17 03:24:53;;;;;;;8.05;5.07;;;;;;;;;;20999670;28;20045;-65
2021/10/17 03:35:04;;;;;;;8.07;5.95;;;;;;;;;;20997704;28;20541;-64
2021/10/17 03:45:19;;;;;;;8.30;6.30;;;;;;;;;;20999096;28;20052;-65
2021/10/17 03:55:29;;;;;;;7.32;6.13;;;;;;;;;;20997678;28;20053;-64
2021/10/17 04:05:38;;;;;;;8.65;6.40;;;;;;;;;;20996870;28;20053;-64
2021/10/17 04:15:58;;;;;;;11.63;7.15;;;;;;;;;;20996014;28;20366;-64
2021/10/17 04:26:19;;;;;;;10.43;7.03;;;;;;;;;;20997006;28;20053;-65
2021/10/17 04:36:41;;;;;;;8.65;6.65;;;;;;;;;;21002910;28;20060;-60
2021/10/17 04:47:02;;;;;;;6.60;5.82;;;;;;;;;;21011967;28;20135;-64
2021/10/17 04:57:24;;;;;;;8.68;6.50;;;;;;;;;;21011156;28;20044;-61
2021/10/17 05:07:46;;;;;;;9.90;7.53;;;;;;;;;;21012019;28;20056;-61
2021/10/17 05:18:07;;;;;;;8.57;7.25;;;;;;;;;;21010796;28;20106;-62
2021/10/17 05:28:16;;;;;;;9.82;8.40;;;;;;;;;;21008698;28;20203;-60
2021/10/17 05:38:24;;;;;;;9.55;7.63;;;;;;;;;;21009467;28;20052;-63
2021/10/17 05:48:31;;;;;;;9.85;7.38;;;;;;;;;;21007406;28;20045;-65
2021/10/17 05:58:39;;;;;;;10.93;8.63;;;;;;;;;;21006386;28;20063;-66
2021/10/17 06:08:46;;;;;;;11.70;9.05;;;;;;;;;;21005524;28;20473;-65
2021/10/17 06:18:51;;;;;;;11.43;9.30;;;;;;;;;;21004195;28;20092;-61
2021/10/17 06:28:53;;;;;;;10.55;8.38;;;;;;;;;;21004185;28;20428;-65
2021/10/17 06:38:56;;;;;;;8.07;7.28;;;;;;;;;;21003345;28;20052;-62
2021/10/17 06:48:58;;;;;;;11.40;8.27;;;;;;;;;;21002278;28;20045;-63
2021/10/17 06:59:02;;;;;;;10.80;9.07;;;;;;;;;;21000390;28;20053;-65
2021/10/17 07:09:07;;;;;;;10.73;7.83;;;;;;;;;;21001009;28;20408;-65
2021/10/17 07:19:13;;;;;;;7.60;6.55;;;;;;;;;;20999138;28;20048;-64
2021/10/17 07:29:17;;;;;;;8.70;7.53;;;;;;;;;;20999231;28;20120;-63
2021/10/17 07:39:22;;;;;;;8.80;7.47;;;;;;;;;;20998406;28;20088;-65
2021/10/17 07:49:25;;;;;;;9.85;6.28;;;;;;;;;;20997308;28;20048;-65
2021/10/17 07:59:30;;;;;;;10.05;7.28;;;;;;;;;;20996446;28;20052;-65
2021/10/17 08:09:34;;;;;;;8.65;7.03;;;;;;;;;;20995564;28;20045;-63
2021/10/17 08:19:37;;;;;;;;;;;;;;;;;;20996505;28;20106;-63
2021/10/17 08:29:40;;;;;;;7.07;6.38;;;;;;;;;;20996221;28;19920;-64
2021/10/17 08:39:42;;;;;;;9.02;7.60;;;;;;;;;;20995242;28;20106;-65
2021/10/17 08:49:45;;;;;;;10.90;7.78;;;;;;;;;;20995223;28;20398;-66
2021/10/17 08:59:49;;;;;;;11.17;7.53;;;;;;;;;;21002832;28;20116;-59
2021/10/17 09:10:09;;;;;;;11.25;7.50;;;;;;;;;;21070564;28;20055;-60
2021/10/17 09:20:15;;;;;;;12.18;8.80;;;;;;;;;;21075420;28;20055;-59
2021/10/17 09:30:19;;;;;;;12.60;9.45;;;;;;;;;;21070876;28;20093;-59
2021/10/17 09:40:26;;;;;;;12.43;8.43;;;;;;;;;;21079163;28;20052;-61
2021/10/17 09:50:28;;;;;;;11.35;7.93;;;;;;;;;;21081522;28;20055;-66
2021/10/17 10:00:34;;;;;;;12.57;8.80;;;;;;;;;;21057809;28;20048;-61
2021/10/17 10:10:38;;;;;;;14.70;10.18;;;;;;;;;;21046606;28;20104;-56
2021/10/17 10:20:42;;;;;;;12.85;9.98;;;;;;;;;;21073130;28;20052;-65
2021/10/17 10:30:45;;;;;;;15.93;10.38;;;;;;;;;;21065648;28;20477;-56
2021/10/17 10:40:48;;;;;;;;;;;;;;;;;;21025709;28;20052;-60
2021/10/17 10:50:55;;;;;;;10.75;8.75;;;;;;;;;;21052274;28;20006;-58
2021/10/17 11:00:57;;;;;;;11.80;8.93;;;;;;;;;;21035789;28;20457;-58
2021/10/17 11:11:00;;;;;;;13.77;10.57;;;;;;;;;;21044976;28;20119;-62
2021/10/17 11:21:04;;;;;;;12.93;9.27;;;;;;;;;;21046944;28;20055;-58
2021/10/17 11:31:14;;;;;;;12.88;9.85;;;;;;;;;;21059777;28;20710;-60
2021/10/17 11:41:17;;;;;;;12.00;10.35;;;;;;;;;;21068579;28;20450;-68
2021/10/17 11:51:22;;;;;;;15.00;10.70;;;;;;;;;;21083215;28;20087;-71
2021/10/17 12:01:25;;;;;;;11.43;9.48;;;;;;;;;;21085626;28;20048;-71
2021/10/17 12:11:27;;;;;;;13.63;9.45;;;;;;;;;;21080467;28;20083;-68
2021/10/17 12:21:31;;;;;;;10.87;8.90;;;;;;;;;;21084778;28;20158;-68
2021/10/17 12:31:35;;;;;;;12.73;8.77;;;;;;;;;;21079107;28;20044;-69
2021/10/17 12:41:37;;;;;;;;;;;;;;;;;;21080075;28;20074;-69
2021/10/17 12:51:53;;;;;;;15.13;9.80;;;;;;;;;;21083972;28;19927;-74
2021/10/17 13:02:05;;;;;;;13.88;9.77;;;;;;;;;;21100957;28;20052;-68
2021/10/17 13:12:34;;;;;;;12.15;8.98;;;;;;;;;;21094518;28;20059;-74
2021/10/17 13:22:44;;;;;;;12.60;8.43;;;;;;;;;;21092374;28;20460;-70
2021/10/17 13:32:47;;;;;;;13.55;9.73;;;;;;;;;;21093093;28;20040;-69
2021/10/17 13:42:54;;;;;;;10.13;8.10;;;;;;;;;;21092571;28;20044;-72
2021/10/17 13:52:57;;;;;;;10.93;7.88;;;;;;;;;;21112603;28;20090;-74
2021/10/17 14:02:59;;;;;;;8.67;5.63;;;;;;;;;;21095397;28;20193;-70
2021/10/17 14:13:01;;;;;;;5.73;4.93;;;;;;;;;;21088000;28;20415;-77
2021/10/17 14:23:03;;;;;;;7.63;5.40;;;;;;;;;;21088021;28;20052;-68
2021/10/17 14:33:06;;;;;;;4.53;3.75;;;;;;;;;;21087062;28;20051;-69
2021/10/17 14:43:08;;;;;;;5.57;4.20;;;;;;;;;;21086089;28;20051;-70
2021/10/17 14:53:11;;;;;;;6.60;4.30;;;;;;;;;;21085969;28;20044;-72
2021/10/17 15:03:13;;;;;;;5.87;4.90;;;;;;;;;;21099164;28;20485;-69
2021/10/17 15:13:16;;;;;;;6.65;4.22;;;;;;;;;;21096740;28;20054;-67
2021/10/17 15:23:19;;;;;;;;;;;;;;;;;;21084813;28;20392;-70
2021/10/17 15:33:21;;;;;;;5.53;4.97;;;;;;;;;;21085769;28;19963;-68
2021/10/17 15:43:24;;;;;;;10.63;5.10;;;;;;;;;;21082567;28;20533;-69
2021/10/17 15:53:27;;;;;;;9.07;5.45;;;;;;;;;;21083804;28;20408;-69
2021/10/17 16:03:29;;;;;;;7.88;5.43;;;;;;;;;;21082694;28;20388;-69
2021/10/17 16:13:32;;;;;;;8.75;5.40;;;;;;;;;;21080090;28;20142;-67
2021/10/17 16:23:36;;;;;;;5.55;3.83;;;;;;;;;;21080821;28;20052;-71
2021/10/17 16:33:39;;;;;;;7.57;4.97;;;;;;;;;;21079360;28;20440;-69
2021/10/17 16:43:47;;;;;;;5.10;4.15;;;;;;;;;;21090476;28;20428;-68
2021/10/17 16:53:49;;;;;;;5.18;3.90;;;;;;;;;;21077636;28;20489;-69
2021/10/17 17:03:52;;;;;;;4.25;3.03;;;;;;;;;;21077138;28;20374;-70
2021/10/17 17:13:54;;;;;;;;;;;;;;;;;;21077900;28;20530;-70
2021/10/17 17:23:56;;;;;;;4.63;3.60;;;;;;;;;;21079908;28;20010;-68
2021/10/17 17:33:58;;;;;;;4.88;4.00;;;;;;;;;;21077829;28;20503;-72
2021/10/17 17:44:00;;;;;;;6.53;4.10;;;;;;;;;;21084490;28;20467;-72
2021/10/17 17:54:02;;;;;;;11.43;4.97;;;;;;;;;;21092230;28;20051;-73
2021/10/17 18:04:04;;;;;;;5.97;3.50;;;;;;;;;;21104974;28;20051;-68
2021/10/17 18:14:06;;;;;;;6.00;4.25;;;;;;;;;;21097407;28;20130;-67
2021/10/17 18:24:08;;;;;;;8.27;4.65;;;;;;;;;;21102830;28;20059;-66
2021/10/17 18:34:10;;;;;;;7.22;4.93;;;;;;;;;;21098789;28;20098;-71
2021/10/17 18:44:12;;;;;;;7.35;5.35;;;;;;;;;;21090485;28;20051;-72
2021/10/17 18:54:17;;;;;;;16.05;12.48;;;;;;;;;;21088341;28;20474;-70
2021/10/17 19:04:19;;;;;;;16.23;9.25;;;;;;;;;;21088826;28;20508;-73
2021/10/17 19:14:21;;;;;;;8.63;6.50;;;;;;;;;;21086162;28;20143;-67
2021/10/17 19:24:23;;;;;;;12.05;6.50;;;;;;;;;;21084055;28;20055;-70
2021/10/17 19:34:25;;;;;;;15.75;11.55;;;;;;;;;;21085937;28;20048;-69
2021/10/17 19:44:28;;;;;;;11.27;6.57;;;;;;;;;;21085156;28;20055;-72
2021/10/17 19:54:30;;;;;;;9.65;6.40;;;;;;;;;;21083398;28;20408;-68
2021/10/17 20:04:32;;;;;;;13.57;8.48;;;;;;;;;;21082605;28;20043;-68
2021/10/17 20:14:35;;;;;;;17.40;9.75;;;;;;;;;;21079286;28;20385;-69
2021/10/17 20:24:37;;;;;;;7.10;5.30;;;;;;;;;;21087904;28;20044;-68
2021/10/17 20:34:45;;;;;;;7.63;4.70;;;;;;;;;;21080393;28;20062;-68
2021/10/17 20:44:48;;;;;;;6.40;4.30;;;;;;;;;;21078515;28;20389;-68
2021/10/17 20:54:51;;;;;;;5.97;4.72;;;;;;;;;;21078297;28;20052;-70
2021/10/17 21:04:53;;;;;;;8.03;5.57;;;;;;;;;;21078885;28;20126;-69
2021/10/17 21:14:55;;;;;;;8.20;5.15;;;;;;;;;;21078527;28;20492;-71
2021/10/17 21:24:58;;;;;;;5.00;4.13;;;;;;;;;;21096201;28;20071;-68
2021/10/17 21:35:00;;;;;;;8.25;5.05;;;;;;;;;;21094333;28;20414;-69
2021/10/17 21:45:02;;;;;;;6.70;4.78;;;;;;;;;;21093981;28;20060;-68
2021/10/17 21:55:06;;;;;;;6.07;4.60;;;;;;;;;;21093594;28;20052;-69
2021/10/17 22:05:08;;;;;;;5.43;3.78;;;;;;;;;;21091500;28;20131;-69
2021/10/17 22:15:10;;;;;;;7.07;4.15;;;;;;;;;;21089483;28;20145;-68
2021/10/17 22:25:13;;;;;;;6.40;4.18;;;;;;;;;;21088293;28;20060;-67
2021/10/17 22:35:15;;;;;;;4.22;3.78;;;;;;;;;;21087288;28;20051;-70
2021/10/17 22:45:17;;;;;;;4.90;3.78;;;;;;;;;;21088477;28;20434;-68
2021/10/17 22:55:19;;;;;;;4.72;4.10;;;;;;;;;;21096406;28;20055;-70
2021/10/17 23:05:21;;;;;;;6.53;4.13;;;;;;;;;;21089998;28;20040;-68
2021/10/17 23:15:23;;;;;;;7.55;4.32;;;;;;;;;;21087680;28;20484;-67
2021/10/17 23:25:25;;;;;;;4.32;3.40;;;;;;;;;;21085054;28;20087;-68
2021/10/17 23:35:27;;;;;;;3.55;3.10;;;;;;;;;;21084498;28;20059;-71
2021/10/17 23:45:29;;;;;;;4.75;3.70;;;;;;;;;;21083525;28;20044;-69
2021/10/17 23:55:31;;;;;;;6.65;4.30;;;;;;;;;;21096618;28;20055;-68
